sensor_id;sensor_type;location;lat;lon;timestamp;temperature;humidity
11059;DHT22;5582;59.272;15.220;2022-08-19T00:01:34;19.80;1.40
11059;DHT22;5582;59.272;15.220;2022-08-19T00:04:04;19.80;1.40
11059;DHT22;5582;59.272;15.220;2022-08-19T00:06:30;19.80;1.40
11059;DHT22;5582;59.272;15.220;2022-08-19T00:08:57;19.80;1.40
11059;DHT22;5582;59.272;15.220;2022-08-19T00:11:25;19.80;1.40
11059;DHT22;5582;59.272;15.220;2022-08-19T00:13:56;19.90;1.40
11059;DHT22;5582;59.272;15.220;2022-08-19T00:16:23;19.90;1.40
11059;DHT22;5582;59.272;15.220;2022-08-19T00:18:48;19.90;1.40
11059;DHT22;5582;59.272;15.220;2022-08-19T00:21:14;20.00;1.40
11059;DHT22;5582;59.272;15.220;2022-08-19T00:23:41;20.00;1.40
11059;DHT22;5582;59.272;15.220;2022-08-19T00:26:09;20.00;1.40
11059;DHT22;5582;59.272;15.220;2022-08-19T00:28:35;20.00;1.40
11059;DHT22;5582;59.272;15.220;2022-08-19T00:31:04;20.00;1.40
11059;DHT22;5582;59.272;15.220;2022-08-19T00:33:31;20.00;1.40
11059;DHT22;5582;59.272;15.220;2022-08-19T00:36:01;20.00;1.40
11059;DHT22;5582;59.272;15.220;2022-08-19T00:38:27;20.00;1.40
11059;DHT22;5582;59.272;15.220;2022-08-19T00:40:53;20.00;1.40
11059;DHT22;5582;59.272;15.220;2022-08-19T00:43:21;20.00;1.40
11059;DHT22;5582;59.272;15.220;2022-08-19T00:45:47;20.00;1.40
11059;DHT22;5582;59.272;15.220;2022-08-19T00:48:13;20.00;1.40
11059;DHT22;5582;59.272;15.220;2022-08-19T00:50:40;20.00;1.40
11059;DHT22;5582;59.272;15.220;2022-08-19T00:53:09;20.00;1.40
11059;DHT22;5582;59.272;15.220;2022-08-19T00:55:37;20.00;1.40
11059;DHT22;5582;59.272;15.220;2022-08-19T00:58:08;20.00;1.40
11059;DHT22;5582;59.272;15.220;2022-08-19T01:00:36;20.00;1.40
11059;DHT22;5582;59.272;15.220;2022-08-19T01:03:14;20.00;1.40
11059;DHT22;5582;59.272;15.220;2022-08-19T01:05:42;20.00;1.40
11059;DHT22;5582;59.272;15.220;2022-08-19T01:08:08;20.10;1.40
11059;DHT22;5582;59.272;15.220;2022-08-19T01:10:41;20.00;1.40
11059;DHT22;5582;59.272;15.220;2022-08-19T01:13:09;20.00;1.40
11059;DHT22;5582;59.272;15.220;2022-08-19T01:15:42;20.00;1.40
11059;DHT22;5582;59.272;15.220;2022-08-19T01:18:11;20.00;1.40
11059;DHT22;5582;59.272;15.220;2022-08-19T01:20:39;20.00;1.40
11059;DHT22;5582;59.272;15.220;2022-08-19T01:23:05;20.00;1.40
11059;DHT22;5582;59.272;15.220;2022-08-19T01:25:44;20.00;1.40
11059;DHT22;5582;59.272;15.220;2022-08-19T01:28:26;20.00;1.40
11059;DHT22;5582;59.272;15.220;2022-08-19T01:30:54;20.00;1.40
11059;DHT22;5582;59.272;15.220;2022-08-19T01:33:20;19.90;1.40
11059;DHT22;5582;59.272;15.220;2022-08-19T01:35:47;20.00;1.40
11059;DHT22;5582;59.272;15.220;2022-08-19T01:38:25;20.00;1.40
11059;DHT22;5582;59.272;15.220;2022-08-19T01:40:51;20.00;1.40
11059;DHT22;5582;59.272;15.220;2022-08-19T01:43:17;20.00;1.40
11059;DHT22;5582;59.272;15.220;2022-08-19T01:45:45;20.00;1.40
11059;DHT22;5582;59.272;15.220;2022-08-19T01:48:11;20.00;1.40
11059;DHT22;5582;59.272;15.220;2022-08-19T01:50:37;20.00;1.40
11059;DHT22;5582;59.272;15.220;2022-08-19T01:53:07;20.00;1.40
11059;DHT22;5582;59.272;15.220;2022-08-19T01:55:35;19.90;1.40
11059;DHT22;5582;59.272;15.220;2022-08-19T01:58:02;19.90;1.40
11059;DHT22;5582;59.272;15.220;2022-08-19T02:00:31;19.90;1.40
11059;DHT22;5582;59.272;15.220;2022-08-19T02:02:57;19.90;1.40
11059;DHT22;5582;59.272;15.220;2022-08-19T02:05:23;19.90;1.40
11059;DHT22;5582;59.272;15.220;2022-08-19T02:07:49;19.90;1.40
11059;DHT22;5582;59.272;15.220;2022-08-19T02:10:20;19.90;1.40
11059;DHT22;5582;59.272;15.220;2022-08-19T02:12:47;19.90;1.40
11059;DHT22;5582;59.272;15.220;2022-08-19T02:15:13;19.90;1.40
11059;DHT22;5582;59.272;15.220;2022-08-19T02:17:39;19.90;1.40
11059;DHT22;5582;59.272;15.220;2022-08-19T02:20:06;19.90;1.40
11059;DHT22;5582;59.272;15.220;2022-08-19T02:22:33;20.00;1.40
11059;DHT22;5582;59.272;15.220;2022-08-19T02:24:59;19.90;1.40
11059;DHT22;5582;59.272;15.220;2022-08-19T02:27:25;20.00;1.40
11059;DHT22;5582;59.272;15.220;2022-08-19T02:29:51;20.00;1.40
11059;DHT22;5582;59.272;15.220;2022-08-19T02:32:18;20.00;1.40
11059;DHT22;5582;59.272;15.220;2022-08-19T02:34:46;19.90;1.40
11059;DHT22;5582;59.272;15.220;2022-08-19T02:37:11;19.90;1.40
11059;DHT22;5582;59.272;15.220;2022-08-19T02:39:58;19.90;1.40
11059;DHT22;5582;59.272;15.220;2022-08-19T02:42:24;19.80;1.40
11059;DHT22;5582;59.272;15.220;2022-08-19T02:44:50;19.80;1.40
11059;DHT22;5582;59.272;15.220;2022-08-19T02:47:17;19.80;1.40
11059;DHT22;5582;59.272;15.220;2022-08-19T02:49:44;19.80;1.40
11059;DHT22;5582;59.272;15.220;2022-08-19T02:52:10;19.70;1.40
11059;DHT22;5582;59.272;15.220;2022-08-19T02:54:37;19.70;1.40
11059;DHT22;5582;59.272;15.220;2022-08-19T02:57:03;19.80;1.40
11059;DHT22;5582;59.272;15.220;2022-08-19T02:59:32;19.80;1.40
11059;DHT22;5582;59.272;15.220;2022-08-19T03:01:58;19.80;1.40
11059;DHT22;5582;59.272;15.220;2022-08-19T03:04:24;19.80;1.40
11059;DHT22;5582;59.272;15.220;2022-08-19T03:06:50;19.80;1.40
11059;DHT22;5582;59.272;15.220;2022-08-19T03:09:17;19.80;1.40
11059;DHT22;5582;59.272;15.220;2022-08-19T03:11:44;19.80;1.40
11059;DHT22;5582;59.272;15.220;2022-08-19T03:14:10;19.80;1.40
11059;DHT22;5582;59.272;15.220;2022-08-19T03:16:46;19.80;1.40
11059;DHT22;5582;59.272;15.220;2022-08-19T03:19:13;19.80;1.40
11059;DHT22;5582;59.272;15.220;2022-08-19T03:21:39;19.80;1.40
11059;DHT22;5582;59.272;15.220;2022-08-19T03:24:07;19.80;1.40
11059;DHT22;5582;59.272;15.220;2022-08-19T03:26:34;19.80;1.40
11059;DHT22;5582;59.272;15.220;2022-08-19T03:29:04;19.80;1.40
11059;DHT22;5582;59.272;15.220;2022-08-19T03:31:30;19.80;1.40
11059;DHT22;5582;59.272;15.220;2022-08-19T03:33:57;19.70;1.40
11059;DHT22;5582;59.272;15.220;2022-08-19T03:36:25;19.80;1.40
11059;DHT22;5582;59.272;15.220;2022-08-19T03:38:58;19.80;1.40
11059;DHT22;5582;59.272;15.220;2022-08-19T03:41:27;19.80;1.40
11059;DHT22;5582;59.272;15.220;2022-08-19T03:43:54;19.80;1.40
11059;DHT22;5582;59.272;15.220;2022-08-19T03:46:28;19.80;1.40
11059;DHT22;5582;59.272;15.220;2022-08-19T03:48:56;19.80;1.40
11059;DHT22;5582;59.272;15.220;2022-08-19T03:51:31;19.80;1.40
11059;DHT22;5582;59.272;15.220;2022-08-19T03:53:59;19.90;1.40
11059;DHT22;5582;59.272;15.220;2022-08-19T03:56:25;19.90;1.40
11059;DHT22;5582;59.272;15.220;2022-08-19T03:58:52;20.00;1.40
11059;DHT22;5582;59.272;15.220;2022-08-19T04:01:21;20.00;1.40
11059;DHT22;5582;59.272;15.220;2022-08-19T04:03:47;20.10;1.40
11059;DHT22;5582;59.272;15.220;2022-08-19T04:06:20;20.10;1.40
11059;DHT22;5582;59.272;15.220;2022-08-19T04:08:48;20.10;1.40
11059;DHT22;5582;59.272;15.220;2022-08-19T04:11:18;20.00;1.40
11059;DHT22;5582;59.272;15.220;2022-08-19T04:13:44;20.10;1.40
11059;DHT22;5582;59.272;15.220;2022-08-19T04:16:10;20.10;1.40
11059;DHT22;5582;59.272;15.220;2022-08-19T04:18:37;20.10;1.40
11059;DHT22;5582;59.272;15.220;2022-08-19T04:21:04;20.20;1.40
11059;DHT22;5582;59.272;15.220;2022-08-19T04:23:31;20.20;1.40
11059;DHT22;5582;59.272;15.220;2022-08-19T04:25:57;20.20;1.40
11059;DHT22;5582;59.272;15.220;2022-08-19T04:28:23;20.20;1.40
11059;DHT22;5582;59.272;15.220;2022-08-19T04:30:52;20.30;1.40
11059;DHT22;5582;59.272;15.220;2022-08-19T04:33:22;20.30;1.40
11059;DHT22;5582;59.272;15.220;2022-08-19T04:35:49;20.40;1.40
11059;DHT22;5582;59.272;15.220;2022-08-19T04:38:16;20.40;1.40
11059;DHT22;5582;59.272;15.220;2022-08-19T04:40:44;20.50;1.40
11059;DHT22;5582;59.272;15.220;2022-08-19T04:43:29;20.60;1.40
11059;DHT22;5582;59.272;15.220;2022-08-19T04:45:55;20.60;1.40
11059;DHT22;5582;59.272;15.220;2022-08-19T04:48:21;20.60;1.40
11059;DHT22;5582;59.272;15.220;2022-08-19T04:50:56;20.60;1.40
11059;DHT22;5582;59.272;15.220;2022-08-19T04:53:30;20.70;1.40
11059;DHT22;5582;59.272;15.220;2022-08-19T04:55:57;20.70;1.40
11059;DHT22;5582;59.272;15.220;2022-08-19T04:58:25;20.70;1.40
11059;DHT22;5582;59.272;15.220;2022-08-19T21:02:41;21.40;1.40
11059;DHT22;5582;59.272;15.220;2022-08-19T21:05:06;21.30;1.40
11059;DHT22;5582;59.272;15.220;2022-08-19T21:07:32;21.30;1.40
11059;DHT22;5582;59.272;15.220;2022-08-19T21:09:58;21.30;1.40
11059;DHT22;5582;59.272;15.220;2022-08-19T21:12:24;21.40;1.40
11059;DHT22;5582;59.272;15.220;2022-08-19T21:14:51;21.40;1.40
11059;DHT22;5582;59.272;15.220;2022-08-19T21:17:17;21.50;1.40
11059;DHT22;5582;59.272;15.220;2022-08-19T21:19:42;21.50;1.40
11059;DHT22;5582;59.272;15.220;2022-08-19T21:22:08;21.60;1.40
11059;DHT22;5582;59.272;15.220;2022-08-19T21:24:34;21.60;1.40
11059;DHT22;5582;59.272;15.220;2022-08-19T21:26:59;21.50;1.40
11059;DHT22;5582;59.272;15.220;2022-08-19T21:29:25;21.50;1.40
11059;DHT22;5582;59.272;15.220;2022-08-19T21:31:51;21.50;1.40
11059;DHT22;5582;59.272;15.220;2022-08-19T21:34:16;21.50;1.40
11059;DHT22;5582;59.272;15.220;2022-08-19T21:36:42;21.50;1.40
11059;DHT22;5582;59.272;15.220;2022-08-19T21:39:08;21.50;1.40
11059;DHT22;5582;59.272;15.220;2022-08-19T21:41:34;21.40;1.40
11059;DHT22;5582;59.272;15.220;2022-08-19T21:43:59;21.40;1.40
11059;DHT22;5582;59.272;15.220;2022-08-19T21:46:25;21.40;1.40
11059;DHT22;5582;59.272;15.220;2022-08-19T21:48:51;21.40;1.40
11059;DHT22;5582;59.272;15.220;2022-08-19T21:51:16;21.40;1.40
11059;DHT22;5582;59.272;15.220;2022-08-19T21:53:42;21.40;1.40
11059;DHT22;5582;59.272;15.220;2022-08-19T21:56:07;21.40;1.40
11059;DHT22;5582;59.272;15.220;2022-08-19T21:58:34;21.40;1.40
11059;DHT22;5582;59.272;15.220;2022-08-19T22:01:02;21.50;1.40
11059;DHT22;5582;59.272;15.220;2022-08-19T22:03:32;21.50;1.40
11059;DHT22;5582;59.272;15.220;2022-08-19T22:05:58;21.50;1.40
11059;DHT22;5582;59.272;15.220;2022-08-19T22:08:25;21.40;1.40
11059;DHT22;5582;59.272;15.220;2022-08-19T22:10:51;21.40;1.40
11059;DHT22;5582;59.272;15.220;2022-08-19T22:13:17;21.30;1.40
11059;DHT22;5582;59.272;15.220;2022-08-19T22:15:44;21.30;1.40
11059;DHT22;5582;59.272;15.220;2022-08-19T22:18:10;21.20;1.40
11059;DHT22;5582;59.272;15.220;2022-08-19T22:20:38;21.10;1.40
11059;DHT22;5582;59.272;15.220;2022-08-19T22:23:05;21.00;1.40
11059;DHT22;5582;59.272;15.220;2022-08-19T22:25:37;20.90;1.40
11059;DHT22;5582;59.272;15.220;2022-08-19T22:28:08;20.90;1.40
11059;DHT22;5582;59.272;15.220;2022-08-19T22:30:35;20.80;1.40
11059;DHT22;5582;59.272;15.220;2022-08-19T22:33:04;20.70;1.40
11059;DHT22;5582;59.272;15.220;2022-08-19T22:35:32;20.70;1.40
11059;DHT22;5582;59.272;15.220;2022-08-19T22:37:59;20.60;1.40
11059;DHT22;5582;59.272;15.220;2022-08-19T22:40:27;20.60;1.40
11059;DHT22;5582;59.272;15.220;2022-08-19T22:42:57;20.60;1.40
11059;DHT22;5582;59.272;15.220;2022-08-19T22:45:24;20.50;1.40
11059;DHT22;5582;59.272;15.220;2022-08-19T22:47:50;20.40;1.40
11059;DHT22;5582;59.272;15.220;2022-08-19T22:50:16;20.30;1.40
11059;DHT22;5582;59.272;15.220;2022-08-19T22:52:42;20.20;1.40
11059;DHT22;5582;59.272;15.220;2022-08-19T22:55:09;20.00;1.40
11059;DHT22;5582;59.272;15.220;2022-08-19T22:57:35;19.90;1.40
11059;DHT22;5582;59.272;15.220;2022-08-19T23:00:03;19.80;1.40
11059;DHT22;5582;59.272;15.220;2022-08-19T23:02:33;19.80;1.40
11059;DHT22;5582;59.272;15.220;2022-08-19T23:05:05;19.80;1.40
11059;DHT22;5582;59.272;15.220;2022-08-19T23:07:31;19.80;1.40
11059;DHT22;5582;59.272;15.220;2022-08-19T23:09:57;19.90;1.40
11059;DHT22;5582;59.272;15.220;2022-08-19T23:12:32;19.90;1.40
11059;DHT22;5582;59.272;15.220;2022-08-19T23:15:05;19.90;1.40
11059;DHT22;5582;59.272;15.220;2022-08-19T23:17:32;19.90;1.40
11059;DHT22;5582;59.272;15.220;2022-08-19T23:19:58;19.80;1.40
11059;DHT22;5582;59.272;15.220;2022-08-19T23:22:24;19.80;1.40
11059;DHT22;5582;59.272;15.220;2022-08-19T23:24:50;19.80;1.40
11059;DHT22;5582;59.272;15.220;2022-08-19T23:27:16;19.80;1.40
11059;DHT22;5582;59.272;15.220;2022-08-19T23:30:00;19.70;1.40
11059;DHT22;5582;59.272;15.220;2022-08-19T23:32:44;19.80;1.40
11059;DHT22;5582;59.272;15.220;2022-08-19T23:35:10;19.70;1.40
11059;DHT22;5582;59.272;15.220;2022-08-19T23:37:36;19.70;1.40
11059;DHT22;5582;59.272;15.220;2022-08-19T23:40:04;19.60;1.40
11059;DHT22;5582;59.272;15.220;2022-08-19T23:42:31;19.60;1.40
11059;DHT22;5582;59.272;15.220;2022-08-19T23:45:03;19.60;1.40
11059;DHT22;5582;59.272;15.220;2022-08-19T23:47:34;19.60;1.40
11059;DHT22;5582;59.272;15.220;2022-08-19T23:50:01;19.60;1.40
11059;DHT22;5582;59.272;15.220;2022-08-19T23:52:32;19.50;1.40
11059;DHT22;5582;59.272;15.220;2022-08-19T23:55:04;19.50;1.40
11059;DHT22;5582;59.272;15.220;2022-08-19T23:57:31;19.50;1.40
11059;DHT22;5582;59.272;15.220;2022-08-19T23:59:57;19.50;1.40
